Time;durP1;ratioP1;P1;durP2;ratioP2;P2;SDS_P1;SDS_P2;PMS_P1;PMS_P2;Temp;Humidity;BMP_temperature;BMP_pressure;BME280_temperature;BME280_humidity;BME280_pressure;Samples;Min_cycle;Max_cycle;Signal;HPM_P1;HPM_P2
2021/07/23 00:00:01;;;;;;;;;;;;;;;23.42;47.82;95805.16;1041474;28;1191;-74
2021/07/23 00:00:31;;;;;;;;;;;;;;;23.43;47.75;95806.69;1049388;28;815;-74
2021/07/23 00:01:02;;;;;;;;;;;;;;;23.43;47.52;95805.94;1043666;28;2344;-73
2021/07/23 00:01:35;;;;;;;;;;;;;;;23.42;47.78;95804.34;1043574;28;2687;-74
2021/07/23 00:02:09;;;;;;;;;;;;;;;23.42;47.61;95805.16;1043666;28;1291;-73
2021/07/23 00:02:39;;;;;;;;;;;;;;;23.42;47.58;95804.34;1044823;28;1253;-73
2021/07/23 00:03:10;;;;;;;;;;;;;;;23.43;47.75;95808.59;1044660;28;3248;-73
2021/07/23 00:03:40;;;;;;;;;;;;;;;23.42;47.79;95804.34;1045036;28;1010;-74
2021/07/23 00:04:11;;;;;;;;;;;;;;;23.42;47.51;95807.00;1041433;28;2696;-73
2021/07/23 00:04:42;;;;;;;;;;;;;;;23.42;47.66;95810.44;1043970;28;2152;-73
2021/07/23 00:05:13;;;;;;;;;;;;;;;23.42;47.86;95805.16;1041788;28;1688;-73
2021/07/23 00:05:43;;;;;;;;;;;;;;;23.42;47.48;95809.66;1043422;28;1230;-73
2021/07/23 00:06:14;;;;;;;;;;;;;;;23.43;47.80;95811.22;1046263;28;1250;-73
2021/07/23 00:06:44;;;;;;;;;;;;;;;23.42;47.63;95809.66;1045221;28;1135;-74
2021/07/23 00:07:15;;;;;;;;;;;;;;;23.43;47.70;95803.28;1047713;28;1264;-73
2021/07/23 00:07:46;;;;;;;;;;;;;;;23.43;47.50;95803.28;1045311;28;1194;-73
2021/07/23 00:08:16;;;;;;;;;;;;;;;23.42;47.53;95807.78;1048962;28;839;-74
2021/07/23 00:08:47;;;;;;;;;;;;;;;23.42;47.74;95799.84;1048714;28;1169;-73
2021/07/23 00:09:17;;;;;;;;;;;;;;;23.42;47.45;95804.34;1043751;28;2268;-74
2021/07/23 00:09:48;;;;;;;;;;;;;;;23.42;47.63;95805.16;1045131;28;1035;-74
2021/07/23 00:10:18;;;;;;;;;;;;;;;23.43;47.63;95800.66;1045238;28;746;-73
2021/07/23 00:10:49;;;;;;;;;;;;;;;23.43;47.83;95801.41;1045480;28;1178;-74
2021/07/23 00:11:20;;;;;;;;;;;;;;;23.43;47.59;95800.66;1044676;28;1242;-73
2021/07/23 00:11:50;;;;;;;;;;;;;;;23.44;47.45;95799.56;1036603;28;1478;-74
2021/07/23 00:12:20;;;;;;;;;;;;;;;23.43;47.63;95803.28;1028504;28;1373;-73
2021/07/23 00:12:51;;;;;;;;;;;;;;;23.42;47.78;95794.56;1028303;28;1185;-73
2021/07/23 00:13:21;;;;;;;;;;;;;;;23.43;47.93;95800.66;1024731;28;1353;-73
2021/07/23 00:13:52;;;;;;;;;;;;;;;23.42;47.52;95794.56;1033299;28;1589;-73
2021/07/23 00:14:25;;;;;;;;;;;;;;;23.43;47.49;95795.38;1038152;28;2469;-73
2021/07/23 00:14:55;;;;;;;;;;;;;;;23.43;47.65;95805.94;1035058;28;1667;-73
2021/07/23 00:15:25;;;;;;;;;;;;;;;23.43;47.70;95795.38;1039356;28;1942;-73
2021/07/23 00:15:56;;;;;;;;;;;;;;;23.43;47.70;95795.38;1044064;28;1148;-74
2021/07/23 00:16:26;;;;;;;;;;;;;;;23.44;47.55;95800.34;1040717;28;1217;-74
2021/07/23 00:16:56;;;;;;;;;;;;;;;23.44;47.71;95796.91;1043937;28;1298;-74
2021/07/23 00:17:27;;;;;;;;;;;;;;;23.43;47.63;95804.06;1044710;28;1207;-73
2021/07/23 00:17:57;;;;;;;;;;;;;;;23.43;47.70;95795.38;1046492;28;1155;-73
2021/07/23 00:18:27;;;;;;;;;;;;;;;23.41;47.78;95798.28;1045014;28;1402;-73
2021/07/23 00:18:57;;;;;;;;;;;;;;;23.43;47.82;95795.38;1044523;28;1527;-73
2021/07/23 00:19:28;;;;;;;;;;;;;;;23.42;47.60;95796.41;1044690;28;1342;-75
2021/07/23 00:19:58;;;;;;;;;;;;;;;23.42;47.51;95796.41;1043482;28;2597;-73
2021/07/23 00:20:28;;;;;;;;;;;;;;;23.42;47.80;95793.78;1041012;28;860;-73
2021/07/23 00:20:59;;;;;;;;;;;;;;;23.42;47.64;95793.78;1043775;28;1260;-74
2021/07/23 00:21:29;;;;;;;;;;;;;;;23.42;47.87;95796.41;1045373;28;1082;-73
2021/07/23 00:22:00;;;;;;;;;;;;;;;23.41;47.48;95798.28;1044911;28;1123;-74
2021/07/23 00:22:30;;;;;;;;;;;;;;;23.42;47.55;95799.06;1044689;28;1193;-73
2021/07/23 00:23:01;;;;;;;;;;;;;;;23.42;47.44;95793.78;1043066;28;1186;-73
2021/07/23 00:23:31;;;;;;;;;;;;;;;23.42;47.68;95791.13;1043991;28;1365;-73
2021/07/23 00:24:02;;;;;;;;;;;;;;;23.43;47.66;95790.06;1043743;28;1427;-74
2021/07/23 00:24:32;;;;;;;;;;;;;;;23.41;47.64;95786.94;1044569;28;1128;-73
2021/07/23 00:25:02;;;;;;;;;;;;;;;23.42;47.75;95789.28;1041974;28;2204;-73
2021/07/23 00:25:34;;;;;;;;;;;;;;;23.42;47.63;95793.78;1041559;28;1147;-74
2021/07/23 00:26:12;;;;;;;;;;;;;;;23.41;47.47;95792.97;1047621;28;1202;-74
2021/07/23 00:26:49;;;;;;;;;;;;;;;23.42;47.66;95791.91;1046821;28;1462;-74
2021/07/23 00:27:19;;;;;;;;;;;;;;;23.41;47.69;95792.22;1042980;28;1199;-73
2021/07/23 00:27:49;;;;;;;;;;;;;;;23.41;47.60;95789.56;1045802;28;1217;-74
2021/07/23 00:28:20;;;;;;;;;;;;;;;23.41;47.55;95786.94;1047578;28;1193;-74
2021/07/23 00:28:51;;;;;;;;;;;;;;;23.41;47.69;95792.22;1044883;28;1167;-74
2021/07/23 00:29:21;;;;;;;;;;;;;;;23.41;47.58;95790.34;1045035;28;1650;-74
2021/07/23 00:29:51;;;;;;;;;;;;;;;23.41;47.66;95789.56;1044260;28;1608;-74
2021/07/23 00:30:22;;;;;;;;;;;;;;;23.42;47.82;95793.78;1043513;28;2761;-74
2021/07/23 00:30:52;;;;;;;;;;;;;;;23.41;47.74;95797.50;1044978;28;1139;-74
2021/07/23 00:31:22;;;;;;;;;;;;;;;23.42;47.26;95788.47;1045289;28;969;-73
2021/07/23 00:31:53;;;;;;;;;;;;;;;23.42;47.48;95793.78;1044525;28;2281;-73
2021/07/23 00:32:23;;;;;;;;;;;;;;;23.43;47.37;95795.38;1040697;28;1374;-73
2021/07/23 00:32:53;;;;;;;;;;;;;;;23.42;47.79;95793.78;1041937;28;1195;-73
2021/07/23 00:33:23;;;;;;;;;;;;;;;23.41;47.57;95792.97;1038247;28;1414;-73
2021/07/23 00:33:54;;;;;;;;;;;;;;;23.41;47.72;95794.88;1039798;28;1752;-73
2021/07/23 00:34:24;;;;;;;;;;;;;;;23.42;47.75;95796.41;1045500;28;1942;-73
2021/07/23 00:34:54;;;;;;;;;;;;;;;23.42;47.63;95788.47;1043189;28;1990;-73
2021/07/23 00:35:27;;;;;;;;;;;;;;;23.41;47.65;95786.94;1043693;28;2545;-73
2021/07/23 00:35:58;;;;;;;;;;;;;;;23.41;47.74;95784.28;1046912;28;1119;-73
2021/07/23 00:36:28;;;;;;;;;;;;;;;23.41;47.64;95786.94;1048227;28;1127;-73
2021/07/23 00:36:58;;;;;;;;;;;;;;;23.40;47.59;95788.78;1046516;28;1412;-74
2021/07/23 00:37:29;;;;;;;;;;;;;;;23.40;47.47;95788.00;1049146;28;1017;-73
2021/07/23 00:38:00;;;;;;;;;;;;;;;23.38;47.47;95790.13;1044799;28;1183;-73
2021/07/23 00:38:30;;;;;;;;;;;;;;;23.38;47.81;95780.34;1041867;28;1002;-73
2021/07/23 00:39:00;;;;;;;;;;;;;;;23.38;47.63;95779.56;1044885;28;1147;-73
2021/07/23 00:39:31;;;;;;;;;;;;;;;23.39;47.42;95781.13;1045261;28;1302;-73
2021/07/23 00:40:01;;;;;;;;;;;;;;;23.39;47.74;95778.47;1043716;28;2368;-73
2021/07/23 00:40:32;;;;;;;;;;;;;;;23.38;47.76;95783.00;1044635;28;973;-74
2021/07/23 00:41:02;;;;;;;;;;;;;;;23.38;47.84;95777.72;1044856;28;1207;-73
2021/07/23 00:41:34;;;;;;;;;;;;;;;23.39;47.44;95783.75;1045087;28;1225;-74
2021/07/23 00:42:05;;;;;;;;;;;;;;;23.38;47.71;95784.84;1044801;28;1351;-73
2021/07/23 00:42:35;;;;;;;;;;;;;;;23.38;47.74;95782.22;1045100;28;1245;-74
2021/07/23 00:43:06;;;;;;;;;;;;;;;23.37;47.78;95780.63;1044809;28;1138;-74
2021/07/23 00:43:36;;;;;;;;;;;;;;;23.36;47.69;95779.84;1044749;28;1241;-73
2021/07/23 00:44:07;;;;;;;;;;;;;;;23.36;47.73;95781.72;1043737;28;1708;-73
2021/07/23 00:44:38;;;;;;;;;;;;;;;23.36;47.79;95779.06;1038931;28;2448;-74
2021/07/23 00:45:09;;;;;;;;;;;;;;;23.36;47.96;95776.41;1036662;28;2289;-73
2021/07/23 00:45:39;;;;;;;;;;;;;;;23.36;47.73;95779.06;1036666;28;983;-73
2021/07/23 00:46:09;;;;;;;;;;;;;;;23.36;47.76;95776.41;1038879;28;1167;-73
2021/07/23 00:46:40;;;;;;;;;;;;;;;23.36;47.61;95779.06;1032388;28;1323;-74
2021/07/23 00:47:10;;;;;;;;;;;;;;;23.37;47.76;95776.13;1032619;28;1240;-73
2021/07/23 00:47:41;;;;;;;;;;;;;;;23.37;47.93;95780.63;1032902;28;982;-73
2021/07/23 00:48:13;;;;;;;;;;;;;;;23.36;47.62;95771.91;1028034;28;1300;-73
2021/07/23 00:48:43;;;;;;;;;;;;;;;23.36;47.65;95771.91;1028773;28;1260;-73
2021/07/23 00:49:14;;;;;;;;;;;;;;;23.35;47.86;95772.97;1032329;28;1035;-74
2021/07/23 00:49:45;;;;;;;;;;;;;;;23.36;47.96;95779.06;1028551;28;1168;-73
2021/07/23 00:50:15;;;;;;;;;;;;;;;23.37;47.97;95783.25;1031894;28;2298;-74
2021/07/23 00:50:45;;;;;;;;;;;;;;;23.37;47.64;95780.63;1036559;28;1111;-73
2021/07/23 00:51:16;;;;;;;;;;;;;;;23.36;48.00;95777.22;1036777;28;1034;-72
2021/07/23 00:51:47;;;;;;;;;;;;;;;23.36;47.91;95768.50;1035433;28;1183;-74
2021/07/23 00:52:17;;;;;;;;;;;;;;;23.36;47.64;95773.78;1036786;28;1181;-74
2021/07/23 00:52:49;;;;;;;;;;;;;;;23.35;47.58;95778.28;1041156;28;1148;-74
2021/07/23 00:53:19;;;;;;;;;;;;;;;23.35;47.84;95777.47;1041091;28;2031;-74
2021/07/23 00:53:50;;;;;;;;;;;;;;;23.36;47.61;95776.41;1037014;28;1029;-73
2021/07/23 00:54:20;;;;;;;;;;;;;;;23.35;47.82;95778.28;1036998;28;1987;-74
2021/07/23 00:54:51;;;;;;;;;;;;;;;23.36;47.84;95773.78;1037678;28;1144;-72
2021/07/23 00:55:21;;;;;;;;;;;;;;;23.36;47.75;95779.06;1032401;28;2346;-73
2021/07/23 00:55:53;;;;;;;;;;;;;;;23.35;47.69;95772.97;1037671;28;1191;-74
2021/07/23 00:56:26;;;;;;;;;;;;;;;23.35;47.70;95780.13;1036830;28;1180;-73
2021/07/23 00:56:56;;;;;;;;;;;;;;;23.35;48.04;95777.47;1032698;28;1267;-74
2021/07/23 00:57:27;;;;;;;;;;;;;;;23.35;47.87;95772.19;1036935;28;839;-73
2021/07/23 00:57:57;;;;;;;;;;;;;;;23.36;47.99;95773.78;1037870;28;1220;-74
2021/07/23 00:58:28;;;;;;;;;;;;;;;23.36;47.70;95768.50;1040156;28;1111;-73
2021/07/23 00:59:05;;;;;;;;;;;;;;;23.36;47.87;95768.50;1042577;28;1096;-73
2021/07/23 00:59:36;;;;;;;;;;;;;;;23.35;47.65;95769.53;1044750;28;843;-74
2021/07/23 01:00:06;;;;;;;;;;;;;;;23.36;47.91;95771.13;1038923;28;2340;-73
2021/07/23 01:00:39;;;;;;;;;;;;;;;23.35;47.94;95777.47;1041083;28;978;-73
2021/07/23 01:01:10;;;;;;;;;;;;;;;23.35;48.00;95774.84;1044241;28;1152;-73
2021/07/23 01:01:40;;;;;;;;;;;;;;;23.35;47.62;95772.19;1044244;28;1807;-73
2021/07/23 01:02:11;;;;;;;;;;;;;;;;;;1040373;28;1157;-73
2021/07/23 01:02:41;;;;;;;;;;;;;;;;;;1041023;28;1173;-73
2021/07/23 01:03:11;;;;;;;;;;;;;;;;;;1043378;28;3101;-73
2021/07/23 01:03:42;;;;;;;;;;;;;;;;;;1040854;28;1231;-74
2021/07/23 01:04:12;;;;;;;;;;;;;;;23.34;48.04;95773.28;1042802;28;2767;-73
2021/07/23 01:04:43;;;;;;;;;;;;;;;23.35;47.90;95770.34;1039844;28;1453;-73
2021/07/23 01:05:13;;;;;;;;;;;;;;;;;;1039973;28;2234;-74
2021/07/23 01:05:44;;;;;;;;;;;;;;;23.33;47.92;95763.75;1045443;28;1092;-73
2021/07/23 01:06:14;;;;;;;;;;;;;;;23.35;47.72;95764.25;1040891;28;1515;-73
2021/07/23 01:06:45;;;;;;;;;;;;;;;;;;1040303;28;1245;-74
2021/07/23 01:07:15;;;;;;;;;;;;;;;23.35;47.99;95765.03;1040377;28;1562;-75
2021/07/23 01:07:46;;;;;;;;;;;;;;;23.36;47.97;95768.50;1036759;28;1239;-73
2021/07/23 01:08:17;;;;;;;;;;;;;;;23.35;47.77;95762.41;1044498;28;835;-74
2021/07/23 01:08:48;;;;;;;;;;;;;;;23.36;48.07;95768.50;1041228;28;1284;-73
2021/07/23 01:09:19;;;;;;;;;;;;;;;23.37;47.70;95767.41;1039961;28;1914;-73
2021/07/23 01:09:50;;;;;;;;;;;;;;;23.36;47.98;95765.84;1045453;28;1119;-74
2021/07/23 01:10:20;;;;;;;;;;;;;;;23.36;47.73;95757.91;1032958;28;2646;-74
2021/07/23 01:10:54;;;;;;;;;;;;;;;23.36;47.94;95768.50;1031209;28;1093;-74
2021/07/23 01:11:24;;;;;;;;;;;;;;;23.34;47.74;95765.34;1036702;28;1547;-74
2021/07/23 01:11:55;;;;;;;;;;;;;;;;;;1029777;28;1211;-74
2021/07/23 01:12:26;;;;;;;;;;;;;;;23.35;47.84;95758.97;1037267;28;1217;-73
2021/07/23 01:12:57;;;;;;;;;;;;;;;23.33;48.01;95763.75;1040352;28;1288;-73
2021/07/23 01:13:35;;;;;;;;;;;;;;;23.34;48.13;95760.06;1032805;28;1208;-74
2021/07/23 01:14:07;;;;;;;;;;;;;;;23.33;48.10;95758.47;1032599;28;1192;-74
2021/07/23 01:14:37;;;;;;;;;;;;;;;;;;1035153;28;1969;-74
2021/07/23 01:15:10;;;;;;;;;;;;;;;23.33;48.04;95763.75;1035345;28;2615;-73
2021/07/23 01:15:42;;;;;;;;;;;;;;;23.33;47.88;95763.75;1045507;28;931;-74
2021/07/23 01:16:15;;;;;;;;;;;;;;;23.32;48.09;95763.00;1045463;28;1545;-73
2021/07/23 01:16:57;;;;;;;;;;;;;;;23.33;47.93;95758.47;1038339;28;1262;-75
2021/07/23 01:17:48;;;;;;;;;;;;;;;23.33;48.08;95750.53;1041269;28;1288;-74
2021/07/23 01:18:22;;;;;;;;;;;;;;;23.33;47.84;95753.19;1041993;28;1228;-74
2021/07/23 01:18:52;;;;;;;;;;;;;;;23.33;48.06;95758.47;1040093;28;1149;-73
2021/07/23 01:19:24;;;;;;;;;;;;;;;23.33;47.87;95758.47;1040166;28;780;-73
2021/07/23 01:20:02;;;;;;;;;;;;;;;23.33;48.02;95758.47;1032559;28;1228;-74
2021/07/23 01:20:32;;;;;;;;;;;;;;;23.32;47.78;95756.91;1035319;28;2817;-73
2021/07/23 01:21:03;;;;;;;;;;;;;;;23.31;48.16;95756.09;1039439;28;1092;-74
2021/07/23 01:21:34;;;;;;;;;;;;;;;23.31;47.97;95755.31;1040566;28;1235;-73
2021/07/23 01:22:07;;;;;;;;;;;;;;;23.31;47.85;95752.66;1045304;28;1143;-74
2021/07/23 01:22:37;;;;;;;;;;;;;;;23.32;48.02;95751.63;1040780;28;1108;-73
2021/07/23 01:23:09;;;;;;;;;;;;;;;23.31;48.08;95755.31;1043011;28;1239;-73
2021/07/23 01:23:40;;;;;;;;;;;;;;;23.30;48.11;95759.84;1044842;28;1186;-74
2021/07/23 01:24:12;;;;;;;;;;;;;;;23.30;48.26;95756.38;1044239;28;1646;-73
2021/07/23 01:24:42;;;;;;;;;;;;;;;23.30;48.23;95751.91;1040597;28;1135;-74
2021/07/23 01:25:16;;;;;;;;;;;;;;;23.30;48.31;95759.03;1031232;28;2521;-74
2021/07/23 01:25:46;;;;;;;;;;;;;;;23.30;48.09;95756.38;1029284;28;1113;-73
2021/07/23 01:26:19;;;;;;;;;;;;;;;23.30;48.22;95759.03;1036443;28;1243;-73
2021/07/23 01:26:50;;;;;;;;;;;;;;;23.30;48.05;95759.84;1035355;28;1203;-73
2021/07/23 01:27:21;;;;;;;;;;;;;;;23.31;48.07;95760.59;1036414;28;1235;-74
2021/07/23 01:27:51;;;;;;;;;;;;;;;23.30;47.96;95759.03;1035450;28;1457;-74
2021/07/23 01:28:22;;;;;;;;;;;;;;;23.30;48.26;95753.75;1033023;28;844;-73
2021/07/23 01:28:52;;;;;;;;;;;;;;;23.29;47.96;95757.44;1040986;28;1283;-74
2021/07/23 01:29:23;;;;;;;;;;;;;;;23.30;48.07;95759.03;1044688;28;3056;-74
2021/07/23 01:29:59;;;;;;;;;;;;;;;23.30;47.91;95756.38;1045544;28;1103;-74
2021/07/23 01:30:29;;;;;;;;;;;;;;;23.28;47.96;95756.69;1042445;28;2791;-74
2021/07/23 01:31:01;;;;;;;;;;;;;;;23.29;48.15;95758.25;1044533;28;1179;-74
2021/07/23 01:31:32;;;;;;;;;;;;;;;23.28;48.08;95756.69;1046351;28;804;-74
2021/07/23 01:32:03;;;;;;;;;;;;;;;23.29;47.83;95757.44;1045343;28;1197;-74
2021/07/23 01:32:34;;;;;;;;;;;;;;;23.29;48.12;95762.75;1047986;28;1338;-74
2021/07/23 01:33:04;;;;;;;;;;;;;;;23.29;47.90;95757.44;1042497;28;1373;-73
2021/07/23 01:33:35;;;;;;;;;;;;;;;23.29;48.26;95760.88;1041211;28;1158;-74
2021/07/23 01:34:05;;;;;;;;;;;;;;;23.29;48.17;95758.25;1044740;28;1902;-74
2021/07/23 01:34:36;;;;;;;;;;;;;;;23.31;48.01;95752.66;1037452;28;1975;-74
2021/07/23 01:35:07;;;;;;;;;;;;;;;23.30;47.93;95759.84;1047463;28;1160;-74
2021/07/23 01:35:37;;;;;;;;;;;;;;;23.31;47.93;95763.25;1042347;28;2933;-75
2021/07/23 01:36:08;;;;;;;;;;;;;;;23.30;48.18;95764.31;1044302;28;2300;-74
2021/07/23 01:36:38;;;;;;;;;;;;;;;23.30;47.83;95764.31;1050559;28;1041;-74
2021/07/23 01:37:09;;;;;;;;;;;;;;;23.30;48.02;95759.03;1041376;28;1416;-74
2021/07/23 01:37:39;;;;;;;;;;;;;;;23.29;48.00;95762.75;1038690;28;1196;-74
2021/07/23 01:38:10;;;;;;;;;;;;;;;23.30;47.97;95764.31;1039682;28;1144;-73
2021/07/23 01:38:40;;;;;;;;;;;;;;;23.28;48.00;95756.69;1037283;28;809;-74
2021/07/23 01:39:11;;;;;;;;;;;;;;;23.29;48.25;95752.16;1037097;28;1200;-74
2021/07/23 01:39:42;;;;;;;;;;;;;;;23.28;48.01;95759.34;1033285;28;808;-74
2021/07/23 01:40:13;;;;;;;;;;;;;;;23.29;48.01;95752.97;1036854;28;1165;-75
2021/07/23 01:40:46;;;;;;;;;;;;;;;23.30;48.04;95748.47;1037163;28;1944;-74
2021/07/23 01:41:16;;;;;;;;;;;;;;;23.30;47.93;95751.09;1037289;28;1491;-74
2021/07/23 01:41:47;;;;;;;;;;;;;;;23.30;48.14;95762.47;1033437;28;1540;-75
2021/07/23 01:42:18;;;;;;;;;;;;;;;23.29;47.97;95762.75;1037953;28;1378;-74
2021/07/23 01:42:48;;;;;;;;;;;;;;;23.30;47.87;95759.03;1041875;28;1116;-74
2021/07/23 01:43:19;;;;;;;;;;;;;;;23.29;48.23;95765.38;1044677;28;1807;-73
2021/07/23 01:43:52;;;;;;;;;;;;;;;23.28;48.13;95756.69;1044912;28;980;-74
2021/07/23 01:44:23;;;;;;;;;;;;;;;23.29;48.26;95757.44;1049083;28;1391;-74
2021/07/23 01:44:54;;;;;;;;;;;;;;;23.28;48.12;95759.34;1042713;28;1553;-74
2021/07/23 01:45:24;;;;;;;;;;;;;;;23.29;48.30;95762.75;1042516;28;2400;-74
2021/07/23 01:45:56;;;;;;;;;;;;;;;23.28;48.06;95751.41;1034616;28;1307;-73
2021/07/23 01:46:27;;;;;;;;;;;;;;;23.29;48.07;95754.81;1041471;28;1046;-74
2021/07/23 01:46:57;;;;;;;;;;;;;;;23.29;48.24;95752.97;1044970;28;1190;-75
2021/07/23 01:47:28;;;;;;;;;;;;;;;23.29;48.24;95757.44;1040869;28;1491;-74
2021/07/23 01:47:58;;;;;;;;;;;;;;;23.28;48.19;95756.69;1043553;28;1151;-73
2021/07/23 01:48:29;;;;;;;;;;;;;;;23.28;48.00;95754.03;1045373;28;1149;-73
2021/07/23 01:48:59;;;;;;;;;;;;;;;23.29;48.24;95758.25;1045515;28;1232;-74
2021/07/23 01:49:33;;;;;;;;;;;;;;;23.30;48.28;95759.03;1045254;28;1449;-74
2021/07/23 01:50:04;;;;;;;;;;;;;;;23.30;48.07;95753.75;1045612;28;1259;-73
2021/07/23 01:50:35;;;;;;;;;;;;;;;23.30;48.32;95759.03;1037919;28;2480;-73
2021/07/23 01:51:05;;;;;;;;;;;;;;;23.30;48.35;95759.03;1039979;28;1156;-74
2021/07/23 01:51:36;;;;;;;;;;;;;;;23.30;48.24;95756.38;1040743;28;1943;-74
2021/07/23 01:52:06;;;;;;;;;;;;;;;23.30;48.07;95751.09;1046905;28;1139;-73
2021/07/23 01:52:37;;;;;;;;;;;;;;;23.29;48.31;95754.81;1043172;28;1939;-74
2021/07/23 01:53:08;;;;;;;;;;;;;;;23.29;48.16;95752.16;1047318;28;1139;-73
2021/07/23 01:53:38;;;;;;;;;;;;;;;23.29;48.40;95757.44;1048185;28;1672;-73
2021/07/23 01:54:08;;;;;;;;;;;;;;;23.30;48.35;95756.38;1048237;28;1292;-74
2021/07/23 01:54:39;;;;;;;;;;;;;;;23.32;47.95;95759.56;1049697;28;1979;-74
2021/07/23 01:55:09;;;;;;;;;;;;;;;23.32;48.12;95756.91;1046327;28;1208;-74
2021/07/23 01:55:42;;;;;;;;;;;;;;;23.32;48.24;95756.91;1044131;28;2510;-74
2021/07/23 01:56:13;;;;;;;;;;;;;;;23.32;48.19;95751.63;1045335;28;1302;-73
2021/07/23 01:56:43;;;;;;;;;;;;;;;23.31;48.20;95755.31;1044912;28;1455;-74
2021/07/23 01:57:14;;;;;;;;;;;;;;;23.30;48.23;95748.47;1044885;28;1260;-74
2021/07/23 01:57:44;;;;;;;;;;;;;;;23.31;48.25;95750.00;1045564;28;1223;-74
2021/07/23 01:58:15;;;;;;;;;;;;;;;23.30;48.43;95748.47;1045269;28;795;-73
2021/07/23 01:58:45;;;;;;;;;;;;;;;23.29;48.29;95752.16;1043863;28;1222;-73
2021/07/23 01:59:15;;;;;;;;;;;;;;;23.28;48.38;95748.75;1040970;28;859;-74
2021/07/23 01:59:46;;;;;;;;;;;;;;;23.28;48.52;95750.59;1045418;28;1100;-74
2021/07/23 02:00:16;;;;;;;;;;;;;;;23.27;48.45;95744.53;1046206;28;1222;-74
2021/07/23 02:00:47;;;;;;;;;;;;;;;23.28;48.12;95751.41;1041537;28;2866;-74
2021/07/23 02:01:17;;;;;;;;;;;;;;;23.29;48.42;95757.44;1045053;28;1329;-73
2021/07/23 02:01:48;;;;;;;;;;;;;;;23.27;48.36;95752.47;1045258;28;1241;-73
2021/07/23 02:02:18;;;;;;;;;;;;;;;23.29;48.39;95746.88;1040336;28;1947;-73
2021/07/23 02:02:48;;;;;;;;;;;;;;;23.29;48.44;95746.88;1041849;28;1381;-73
2021/07/23 02:03:19;;;;;;;;;;;;;;;23.29;48.43;95746.88;1042867;28;3261;-74
2021/07/23 02:03:49;;;;;;;;;;;;;;;23.28;48.46;95750.59;1040038;28;2594;-74
2021/07/23 02:04:20;;;;;;;;;;;;;;;23.29;48.29;95741.59;1046090;28;2334;-73
2021/07/23 02:04:50;;;;;;;;;;;;;;;23.28;48.45;95747.97;1042534;28;1387;-74
2021/07/23 02:05:21;;;;;;;;;;;;;;;23.28;48.52;95742.69;1044809;28;2609;-73
2021/07/23 02:05:51;;;;;;;;;;;;;;;23.30;48.63;95745.81;1044765;28;2219;-74
2021/07/23 02:06:22;;;;;;;;;;;;;;;23.28;48.30;95747.97;1045362;28;1032;-73
2021/07/23 02:06:52;;;;;;;;;;;;;;;23.28;48.38;95743.47;1044135;28;1253;-74
2021/07/23 02:07:23;;;;;;;;;;;;;;;23.28;48.43;95751.41;1045366;28;1150;-73
2021/07/23 02:07:53;;;;;;;;;;;;;;;23.28;48.20;95747.97;1046076;28;1146;-73
2021/07/23 02:08:24;;;;;;;;;;;;;;;23.28;48.51;95754.03;1044943;28;1125;-73
2021/07/23 02:08:55;;;;;;;;;;;;;;;23.27;48.47;95754.31;1045526;28;1217;-73
2021/07/23 02:09:25;;;;;;;;;;;;;;;23.26;48.30;95750.91;1045151;28;870;-73
2021/07/23 02:09:56;;;;;;;;;;;;;;;23.27;48.61;95751.66;1043362;28;1907;-73
2021/07/23 02:10:27;;;;;;;;;;;;;;;23.26;48.52;95750.13;1041941;28;2527;-73
2021/07/23 02:10:57;;;;;;;;;;;;;;;23.26;48.28;95748.25;1047525;28;1315;-72
2021/07/23 02:11:28;;;;;;;;;;;;;;;23.26;48.32;95747.47;1049146;28;1171;-74
2021/07/23 02:11:58;;;;;;;;;;;;;;;23.26;48.52;95747.47;1047256;28;1399;-74
2021/07/23 02:12:29;;;;;;;;;;;;;;;23.27;48.30;95749.03;1045244;28;1332;-74
2021/07/23 02:13:00;;;;;;;;;;;;;;;23.26;48.42;95747.47;1047852;28;1136;-73
2021/07/23 02:13:31;;;;;;;;;;;;;;;23.26;48.41;95742.19;1049771;28;956;-74
2021/07/23 02:14:06;;;;;;;;;;;;;;;23.26;48.62;95752.75;1045543;28;1521;-74
2021/07/23 02:14:37;;;;;;;;;;;;;;;23.26;48.26;95750.13;1044778;28;1981;-73
2021/07/23 02:15:07;;;;;;;;;;;;;;;23.26;48.69;95750.13;1048367;28;969;-74
2021/07/23 02:15:38;;;;;;;;;;;;;;;23.26;48.73;95748.25;1041031;28;1984;-73
2021/07/23 02:16:09;;;;;;;;;;;;;;;23.26;48.40;95750.13;1048481;28;1250;-73
2021/07/23 02:16:39;;;;;;;;;;;;;;;23.26;48.34;95747.47;1046316;28;1292;-73
2021/07/23 02:17:10;;;;;;;;;;;;;;;23.27;48.54;95756.97;1038201;28;1241;-73
2021/07/23 02:17:41;;;;;;;;;;;;;;;23.26;48.52;95747.47;1041113;28;785;-73
2021/07/23 02:18:11;;;;;;;;;;;;;;;23.26;48.62;95748.25;1037096;28;1232;-73
2021/07/23 02:18:42;;;;;;;;;;;;;;;23.27;48.63;95760.41;1037631;28;1160;-73
2021/07/23 02:19:13;;;;;;;;;;;;;;;23.27;48.44;95755.09;1044906;28;1382;-73
2021/07/23 02:19:43;;;;;;;;;;;;;;;23.28;48.63;95750.59;1040254;28;1803;-74
2021/07/23 02:20:16;;;;;;;;;;;;;;;23.27;48.74;95757.75;1044046;28;1235;-73
2021/07/23 02:20:46;;;;;;;;;;;;;;;23.26;48.70;95752.75;1036866;28;2547;-73
2021/07/23 02:21:17;;;;;;;;;;;;;;;23.26;48.54;95756.19;1041380;28;1284;-73
2021/07/23 02:21:47;;;;;;;;;;;;;;;23.28;48.50;95755.91;1037213;28;1288;-73
2021/07/23 02:22:17;;;;;;;;;;;;;;;23.28;48.69;95758.53;1037080;28;1288;-74
2021/07/23 02:22:48;;;;;;;;;;;;;;;23.28;48.90;95755.91;1041379;28;1188;-73
2021/07/23 02:23:18;;;;;;;;;;;;;;;23.28;48.61;95753.25;1044589;28;800;-73
2021/07/23 02:23:49;;;;;;;;;;;;;;;23.29;48.50;95749.53;1045368;28;1185;-74
2021/07/23 02:24:19;;;;;;;;;;;;;;;23.30;48.58;95759.03;1045099;28;1449;-74
2021/07/23 02:24:50;;;;;;;;;;;;;;;23.30;48.87;95748.47;1044604;28;1609;-74
2021/07/23 02:25:20;;;;;;;;;;;;;;;23.30;48.58;95748.47;1045467;28;1194;-74
2021/07/23 02:25:50;;;;;;;;;;;;;;;23.30;48.68;95751.91;1043242;28;2479;-73
2021/07/23 02:26:21;;;;;;;;;;;;;;;23.30;48.53;95748.47;1049716;28;787;-74
2021/07/23 02:26:53;;;;;;;;;;;;;;;23.31;48.78;95755.31;1045858;28;1534;-74
2021/07/23 02:27:24;;;;;;;;;;;;;;;23.30;48.58;95754.53;1047079;28;1150;-74
2021/07/23 02:27:54;;;;;;;;;;;;;;;23.30;48.84;95746.59;1046590;28;1507;-74
2021/07/23 02:28:25;;;;;;;;;;;;;;;23.31;48.48;95750.00;1044995;28;811;-73
2021/07/23 02:28:57;;;;;;;;;;;;;;;23.31;48.42;95750.81;1039551;28;1076;-74
2021/07/23 02:29:27;;;;;;;;;;;;;;;23.31;48.63;95752.66;1032163;28;1768;-74
2021/07/23 02:29:58;;;;;;;;;;;;;;;23.30;48.71;95745.81;1039154;28;1161;-74
2021/07/23 02:30:28;;;;;;;;;;;;;;;23.30;48.77;95749.25;1043642;28;2498;-73
2021/07/23 02:30:59;;;;;;;;;;;;;;;23.29;48.49;95754.81;1045761;28;2235;-73
2021/07/23 02:31:29;;;;;;;;;;;;;;;23.29;48.65;95754.81;1049872;28;947;-73
2021/07/23 02:31:59;;;;;;;;;;;;;;;23.29;48.82;95752.16;1045174;28;2965;-73
2021/07/23 02:32:30;;;;;;;;;;;;;;;23.29;48.56;95752.97;1044863;28;1216;-73
2021/07/23 02:33:00;;;;;;;;;;;;;;;23.29;48.63;95752.97;1045324;28;1211;-73
2021/07/23 02:33:30;;;;;;;;;;;;;;;23.29;48.54;95745.03;1040877;28;1193;-74
2021/07/23 02:34:01;;;;;;;;;;;;;;;23.30;48.66;95751.09;1041198;28;2154;-73
2021/07/23 02:34:32;;;;;;;;;;;;;;;23.29;48.81;95755.59;1040308;28;1969;-72
2021/07/23 02:35:03;;;;;;;;;;;;;;;23.29;48.75;95752.16;1040989;28;1168;-73
2021/07/23 02:35:33;;;;;;;;;;;;;;;23.29;48.79;95750.31;1041679;28;2577;-73
2021/07/23 02:36:04;;;;;;;;;;;;;;;23.29;48.89;95744.22;1044278;28;1000;-73
2021/07/23 02:36:34;;;;;;;;;;;;;;;23.29;48.76;95749.53;1045708;28;1311;-73
2021/07/23 02:37:04;;;;;;;;;;;;;;;23.29;48.99;95746.88;1045650;28;1214;-73
2021/07/23 02:37:36;;;;;;;;;;;;;;;23.29;48.89;95746.88;1045489;28;1234;-73
2021/07/23 02:38:06;;;;;;;;;;;;;;;23.29;49.04;95750.31;1044540;28;1240;-73
2021/07/23 02:38:37;;;;;;;;;;;;;;;23.29;48.64;95749.53;1044478;28;1265;-73
2021/07/23 02:39:07;;;;;;;;;;;;;;;23.29;49.04;95746.88;1045243;28;2041;-73
2021/07/23 02:39:37;;;;;;;;;;;;;;;23.28;48.73;95745.31;1045327;28;831;-73
2021/07/23 02:40:08;;;;;;;;;;;;;;;23.28;48.87;95742.69;1048892;28;1151;-73
2021/07/23 02:40:38;;;;;;;;;;;;;;;23.28;49.04;95740.03;1044055;28;2547;-73
2021/07/23 02:41:09;;;;;;;;;;;;;;;23.27;48.82;95749.03;1049009;28;1191;-73
2021/07/23 02:41:39;;;;;;;;;;;;;;;23.28;48.89;95750.59;1050471;28;807;-73
2021/07/23 02:42:09;;;;;;;;;;;;;;;23.27;48.95;95746.38;1046287;28;1343;-73
2021/07/23 02:42:40;;;;;;;;;;;;;;;23.28;48.96;95746.09;1040920;28;1222;-73
2021/07/23 02:43:10;;;;;;;;;;;;;;;23.28;49.04;95740.81;1040963;28;1163;-73
2021/07/23 02:43:41;;;;;;;;;;;;;;;23.28;48.67;95750.59;1040945;28;1307;-73
2021/07/23 02:44:11;;;;;;;;;;;;;;;23.28;48.89;95740.81;1045136;28;1153;-73